createdAt,value
2018-05-12T00:00:54.171Z,8.43
2018-05-12T00:03:28.999Z,11.73
2018-05-12T00:06:04.265Z,8.60
2018-05-12T00:08:38.861Z,11.10
2018-05-12T00:11:13.540Z,8.73
2018-05-12T00:13:48.297Z,11.77
2018-05-12T00:16:22.932Z,10.80
2018-05-12T00:18:57.538Z,9.40
2018-05-12T00:21:33.118Z,9.93
2018-05-12T00:24:08.558Z,8.87
2018-05-12T00:26:43.443Z,9.37
2018-05-12T00:29:18.447Z,8.63
2018-05-12T00:31:53.425Z,8.47
2018-05-12T00:34:28.939Z,8.70
2018-05-12T00:37:03.906Z,8.83
2018-05-12T00:39:38.455Z,9.63
2018-05-12T00:42:13.161Z,13.47
2018-05-12T00:44:47.997Z,9.67
2018-05-12T00:47:22.656Z,8.50
2018-05-12T00:49:57.426Z,11.70
2018-05-12T00:52:32.395Z,8.87
2018-05-12T00:55:06.748Z,9.30
2018-05-12T00:57:41.344Z,9.60
2018-05-12T01:00:16.154Z,10.57
2018-05-12T01:02:50.764Z,16.57
2018-05-12T01:05:26.074Z,11.00
2018-05-12T01:08:01.609Z,9.57
2018-05-12T01:10:36.380Z,10.60
2018-05-12T01:13:10.996Z,11.40
2018-05-12T01:15:46.359Z,9.77
2018-05-12T01:18:21.230Z,8.83
2018-05-12T01:20:55.893Z,11.37
2018-05-12T01:23:30.717Z,12.37
2018-05-12T01:26:05.606Z,11.73
2018-05-12T01:28:40.214Z,10.60
2018-05-12T01:31:15.118Z,11.53
2018-05-12T01:33:49.865Z,13.93
2018-05-12T01:36:25.491Z,11.53
2018-05-12T01:39:00.187Z,12.53
2018-05-12T01:41:34.878Z,10.03
2018-05-12T01:44:09.539Z,9.67
2018-05-12T01:46:44.226Z,9.33
2018-05-12T01:49:18.893Z,9.00
2018-05-12T01:51:53.512Z,9.87
2018-05-12T01:54:28.142Z,10.30
2018-05-12T01:57:02.717Z,9.40
2018-05-12T01:59:33.525Z,9.37
2018-05-12T02:02:08.235Z,12.10
2018-05-12T02:04:43.651Z,12.73
2018-05-12T02:07:18.233Z,12.57
2018-05-12T02:09:52.984Z,9.83
2018-05-12T02:12:27.647Z,10.20
2018-05-12T02:15:02.405Z,9.53
2018-05-12T02:17:36.957Z,11.07
2018-05-12T02:20:11.999Z,9.77
2018-05-12T02:22:46.659Z,12.70
2018-05-12T02:25:21.550Z,12.70
2018-05-12T02:27:56.298Z,12.33
2018-05-12T02:30:31.709Z,14.37
2018-05-12T02:33:07.383Z,10.17
2018-05-12T02:35:41.971Z,10.17
2018-05-12T02:38:16.543Z,13.20
2018-05-12T02:40:51.064Z,10.23
2018-05-12T02:43:25.847Z,10.53
2018-05-12T02:46:00.669Z,12.70
2018-05-12T02:48:35.384Z,10.60
2018-05-12T02:51:10.703Z,13.27
2018-05-12T02:53:45.307Z,10.60
2018-05-12T02:56:20.740Z,10.97
2018-05-12T02:58:55.981Z,10.60
2018-05-12T03:01:30.627Z,15.03
2018-05-12T03:04:05.399Z,12.00
2018-05-12T03:06:39.959Z,9.77
2018-05-12T03:09:14.523Z,13.10
2018-05-12T03:11:49.129Z,12.33
2018-05-12T03:14:23.742Z,10.53
2018-05-12T03:16:58.288Z,13.60
2018-05-12T03:19:33.793Z,12.23
2018-05-12T03:22:08.399Z,11.37
2018-05-12T03:24:38.401Z,9.57
2018-05-12T03:27:12.892Z,10.43
2018-05-12T03:29:47.594Z,10.10
2018-05-12T03:32:22.969Z,11.07
2018-05-12T03:34:57.562Z,11.30
2018-05-12T03:37:32.169Z,13.53
2018-05-12T03:40:06.955Z,13.73
2018-05-12T03:42:41.242Z,11.63
2018-05-12T03:45:16.609Z,11.03
2018-05-12T03:47:51.958Z,11.10
2018-05-12T03:50:26.530Z,12.97
2018-05-12T03:53:00.931Z,12.00
2018-05-12T03:55:35.642Z,10.73
2018-05-12T03:58:10.207Z,11.70
2018-05-12T04:00:44.873Z,12.30
2018-05-12T04:03:19.486Z,14.47
2018-05-12T04:06:05.462Z,10.97
2018-05-12T04:08:52.259Z,13.23
2018-05-12T04:11:39.145Z,11.33
2018-05-12T04:14:13.778Z,12.80
2018-05-12T04:16:48.503Z,12.37
2018-05-12T04:19:23.127Z,10.70
2018-05-12T04:21:57.781Z,10.80
2018-05-12T04:24:32.407Z,11.10
2018-05-12T04:27:07.845Z,13.53
2018-05-12T04:29:43.180Z,13.10
2018-05-12T04:32:18.670Z,10.90
2018-05-12T04:34:54.314Z,11.40
2018-05-12T04:37:29.461Z,14.30
2018-05-12T04:40:04.435Z,18.87
2018-05-12T04:42:39.274Z,11.17
2018-05-12T04:45:14.726Z,13.30
2018-05-12T04:47:49.355Z,13.33
2018-05-12T04:50:23.967Z,11.57
2018-05-12T04:52:58.611Z,10.40
2018-05-12T04:55:33.253Z,11.83
2018-05-12T04:58:07.847Z,11.60
2018-05-12T05:00:43.197Z,11.03
2018-05-12T05:03:17.727Z,11.33
2018-05-12T05:05:52.305Z,12.97
2018-05-12T05:08:27.099Z,11.50
2018-05-12T05:11:01.688Z,12.67
2018-05-12T05:13:36.456Z,13.97
2018-05-12T05:16:13.432Z,10.97
2018-05-12T05:18:48.927Z,13.90
2018-05-12T05:21:23.683Z,13.30
2018-05-12T05:23:58.382Z,12.20
2018-05-12T05:26:33.054Z,16.00
2018-05-12T05:29:07.591Z,12.03
2018-05-12T05:31:43.072Z,14.07
2018-05-12T05:34:17.848Z,18.87
2018-05-12T05:36:52.495Z,13.33
2018-05-12T05:39:27.407Z,11.73
2018-05-12T05:42:02.365Z,12.83
2018-05-12T05:44:37.136Z,13.10
2018-05-12T05:47:11.949Z,14.90
2018-05-12T05:49:46.727Z,13.50
2018-05-12T05:52:22.293Z,13.73
2018-05-12T05:54:56.929Z,12.43
2018-05-12T05:57:31.864Z,12.73
2018-05-12T06:00:06.765Z,16.80
2018-05-12T06:02:41.527Z,13.10
2018-05-12T06:05:22.205Z,14.73
2018-05-12T06:08:01.306Z,12.47
2018-05-12T06:10:36.146Z,17.57
2018-05-12T06:13:11.597Z,14.07
2018-05-12T06:15:46.670Z,16.37
2018-05-12T06:18:21.261Z,14.17
2018-05-12T06:20:56.044Z,12.80
2018-05-12T06:23:30.840Z,16.57
2018-05-12T06:26:05.821Z,17.50
2018-05-12T06:28:41.357Z,18.40
2018-05-12T06:31:15.965Z,13.40
2018-05-12T06:33:50.603Z,16.77
2018-05-12T06:36:25.406Z,14.90
2018-05-12T06:39:00.572Z,14.50
2018-05-12T06:41:35.120Z,17.17
2018-05-12T06:44:09.767Z,18.93
2018-05-12T06:46:44.474Z,19.80
2018-05-12T06:49:19.089Z,19.27
2018-05-12T06:51:54.549Z,16.07
2018-05-12T06:54:29.352Z,19.70
2018-05-12T06:57:03.799Z,14.73
2018-05-12T06:59:38.554Z,18.40
2018-05-12T07:02:14.357Z,15.27
2018-05-12T07:04:49.046Z,17.13
2018-05-12T07:07:23.728Z,22.03
2018-05-12T07:09:58.307Z,16.63
2018-05-12T07:12:33.056Z,17.50
2018-05-12T07:15:08.002Z,21.57
2018-05-12T07:17:42.667Z,16.80
2018-05-12T07:20:17.621Z,22.20
2018-05-12T07:22:52.319Z,21.13
2018-05-12T07:25:27.149Z,17.93
2018-05-12T07:28:02.527Z,16.93
2018-05-12T07:30:37.364Z,15.57
2018-05-12T07:33:11.933Z,17.27
2018-05-12T07:35:46.610Z,18.90
2018-05-12T07:38:21.225Z,20.53
2018-05-12T07:40:59.864Z,17.37
2018-05-12T07:43:34.528Z,20.23
2018-05-12T07:46:09.209Z,17.47
2018-05-12T07:48:43.866Z,19.10
2018-05-12T07:51:18.469Z,16.73
2018-05-12T07:53:53.805Z,18.13
2018-05-12T07:56:28.416Z,18.23
2018-05-12T07:59:03.050Z,18.37
2018-05-12T08:01:37.685Z,21.57
2018-05-12T08:04:12.280Z,19.30
2018-05-12T08:06:46.884Z,20.83
2018-05-12T08:09:22.465Z,16.53
2018-05-12T08:11:57.094Z,20.17
2018-05-12T08:14:32.706Z,16.67
2018-05-12T08:17:08.219Z,17.07
2018-05-12T08:19:42.835Z,23.37
2018-05-12T08:22:18.119Z,19.20
2018-05-12T08:24:52.712Z,20.87
2018-05-12T08:27:27.375Z,18.83
2018-05-12T08:30:02.084Z,19.30
2018-05-12T08:32:36.821Z,22.37
2018-05-12T08:35:11.512Z,18.03
2018-05-12T08:37:46.437Z,17.53
2018-05-12T08:40:22.206Z,19.00
2018-05-12T08:42:57.002Z,17.07
2018-05-12T08:45:31.624Z,26.30
2018-05-12T08:48:06.253Z,19.33
2018-05-12T08:50:41.251Z,15.43
2018-05-12T08:53:16.249Z,16.20
2018-05-12T08:55:51.812Z,18.50
2018-05-12T08:58:26.743Z,16.33
2018-05-12T09:01:02.107Z,16.77
2018-05-12T09:03:36.555Z,17.80
2018-05-12T09:06:12.043Z,10.80
2018-05-12T09:08:46.675Z,10.90
2018-05-12T09:11:22.354Z,11.43
2018-05-12T09:13:57.050Z,10.00
2018-05-12T09:16:32.029Z,7.23
2018-05-12T09:19:06.587Z,6.97
2018-05-12T09:21:41.353Z,4.53
2018-05-12T09:24:15.890Z,5.00
2018-05-12T09:26:50.525Z,5.70
2018-05-12T09:29:25.127Z,7.03
2018-05-12T09:32:00.111Z,6.37
2018-05-12T09:34:34.784Z,5.10
2018-05-12T09:37:09.522Z,5.33
2018-05-12T09:39:44.294Z,5.40
2018-05-12T09:42:19.033Z,3.23
2018-05-12T09:44:54.103Z,7.40
2018-05-12T09:47:28.886Z,4.23
2018-05-12T09:50:03.099Z,5.70
2018-05-12T09:52:37.600Z,5.77
2018-05-12T09:55:12.337Z,5.00
2018-05-12T09:57:46.906Z,7.37
2018-05-12T10:00:25.712Z,4.97
2018-05-12T10:03:00.272Z,5.47
2018-05-12T10:05:35.123Z,4.60
2018-05-12T10:08:10.108Z,7.20
2018-05-12T10:10:44.797Z,4.63
2018-05-12T10:13:19.580Z,4.93
2018-05-12T10:15:54.471Z,4.23
2018-05-12T10:18:29.216Z,4.30
2018-05-12T10:21:04.194Z,5.03
2018-05-12T10:23:39.671Z,6.70
2018-05-12T10:26:14.501Z,4.20
2018-05-12T10:28:49.206Z,5.13
2018-05-12T10:31:23.864Z,4.23
2018-05-12T10:33:58.639Z,4.20
2018-05-12T10:36:33.745Z,5.83
2018-05-12T10:39:09.295Z,4.83
2018-05-12T10:41:44.946Z,3.73
2018-05-12T10:44:19.704Z,4.73
2018-05-12T10:46:54.331Z,5.37
2018-05-12T10:49:29.265Z,4.53
2018-05-12T10:52:03.909Z,7.20
2018-05-12T10:54:38.600Z,4.23
2018-05-12T10:57:14.160Z,4.30
2018-05-12T10:59:49.013Z,4.30
2018-05-12T11:02:23.919Z,6.63
2018-05-12T11:04:58.523Z,5.60
2018-05-12T11:07:34.108Z,6.07
2018-05-12T11:10:08.904Z,5.80
2018-05-12T11:12:43.538Z,6.60
2018-05-12T11:15:18.089Z,5.07
2018-05-12T11:17:53.644Z,5.00
2018-05-12T11:20:28.520Z,6.17
2018-05-12T11:23:03.258Z,6.87
2018-05-12T11:25:38.645Z,5.90
2018-05-12T11:28:13.430Z,6.07
2018-05-12T11:30:48.025Z,5.90
2018-05-12T11:33:22.780Z,6.20
2018-05-12T11:35:57.418Z,5.33
2018-05-12T11:38:31.959Z,6.23
2018-05-12T11:41:06.551Z,4.97
2018-05-12T11:43:41.250Z,6.93
2018-05-12T11:46:16.039Z,5.33
2018-05-12T11:48:50.704Z,7.93
2018-05-12T11:51:25.727Z,6.93
2018-05-12T11:54:00.876Z,6.70
2018-05-12T11:56:35.776Z,9.20
2018-05-12T11:59:10.923Z,5.73
2018-05-12T12:01:45.744Z,5.97
2018-05-12T12:04:20.353Z,6.33
2018-05-12T12:06:55.168Z,6.40
2018-05-12T12:09:30.533Z,6.30
2018-05-12T12:12:05.090Z,8.67
2018-05-12T12:14:40.334Z,7.37
2018-05-12T12:17:14.895Z,5.90
2018-05-12T12:19:49.622Z,6.53
2018-05-12T12:22:24.274Z,6.10
2018-05-12T12:24:58.939Z,6.20
2018-05-12T12:27:33.580Z,7.23
2018-05-12T12:30:08.250Z,5.77
2018-05-12T12:32:46.968Z,7.23
2018-05-12T12:35:21.671Z,6.47
2018-05-12T12:37:56.273Z,9.80
2018-05-12T12:40:30.922Z,5.43
2018-05-12T12:43:05.750Z,6.50
2018-05-12T12:45:41.280Z,5.80
2018-05-12T12:48:15.986Z,5.67
2018-05-12T12:50:50.605Z,6.47
2018-05-12T12:53:26.417Z,6.00
2018-05-12T12:56:01.274Z,5.87
2018-05-12T12:58:35.826Z,5.60
2018-05-12T13:01:10.402Z,7.20
2018-05-12T13:03:45.183Z,5.40
2018-05-12T13:06:20.508Z,7.90
2018-05-12T13:08:55.629Z,8.20
2018-05-12T13:11:31.060Z,9.10
2018-05-12T13:14:05.811Z,6.50
2018-05-12T13:16:40.444Z,8.83
2018-05-12T13:19:15.254Z,7.90
2018-05-12T13:21:49.925Z,7.03
2018-05-12T13:24:24.490Z,5.03
2018-05-12T13:26:58.937Z,8.80
2018-05-12T13:29:33.509Z,6.43
2018-05-12T13:32:08.083Z,7.03
2018-05-12T13:34:42.717Z,6.33
2018-05-12T13:37:17.517Z,4.90
2018-05-12T13:39:52.319Z,5.37
2018-05-12T13:42:26.896Z,5.73
2018-05-12T13:45:01.663Z,5.13
2018-05-12T13:47:36.363Z,6.20
2018-05-12T13:50:11.012Z,5.10
2018-05-12T13:52:45.608Z,5.50
2018-05-12T13:55:20.529Z,5.70
2018-05-12T13:57:55.262Z,6.33
2018-05-12T14:00:30.890Z,7.30
2018-05-12T14:03:05.255Z,5.47
2018-05-12T14:05:40.002Z,5.20
2018-05-12T14:08:14.680Z,8.27
2018-05-12T14:10:49.037Z,6.93
2018-05-12T14:13:24.479Z,6.73
2018-05-12T14:15:59.173Z,5.60
2018-05-12T14:18:33.872Z,5.33
2018-05-12T14:21:08.474Z,5.90
2018-05-12T14:23:43.339Z,5.23
2018-05-12T14:26:18.000Z,5.70
2018-05-12T14:28:52.896Z,7.10
2018-05-12T14:31:27.979Z,6.17
2018-05-12T14:34:02.649Z,5.30
2018-05-12T14:36:37.489Z,5.30
2018-05-12T14:39:12.131Z,5.33
2018-05-12T14:41:46.782Z,5.83
2018-05-12T14:44:21.509Z,5.90
2018-05-12T14:46:57.133Z,4.93
2018-05-12T14:49:31.882Z,5.73
2018-05-12T14:52:06.474Z,5.03
2018-05-12T14:54:41.117Z,5.90
2018-05-12T14:57:16.444Z,5.80
2018-05-12T14:59:50.993Z,10.03
2018-05-12T15:02:25.853Z,5.70
2018-05-12T15:05:01.877Z,5.10
2018-05-12T15:07:37.179Z,6.00
2018-05-12T15:10:11.796Z,5.10
2018-05-12T15:12:46.552Z,6.40
2018-05-12T15:15:22.172Z,5.83
2018-05-12T15:17:57.003Z,5.27
2018-05-12T15:20:31.764Z,7.70
2018-05-12T15:23:06.555Z,6.20
2018-05-12T15:25:41.164Z,7.40
2018-05-12T15:28:15.842Z,6.03
2018-05-12T15:30:51.162Z,7.07
2018-05-12T15:33:26.042Z,8.50
2018-05-12T15:36:00.756Z,5.70
2018-05-12T15:38:35.366Z,6.10
2018-05-12T15:41:09.921Z,6.97
2018-05-12T15:43:44.709Z,6.63
2018-05-12T15:46:19.683Z,5.80
2018-05-12T15:48:54.987Z,5.57
2018-05-12T15:51:29.564Z,6.63
2018-05-12T15:54:03.926Z,5.90
2018-05-12T15:56:38.678Z,5.90
2018-05-12T15:59:13.289Z,6.10
2018-05-12T16:01:47.938Z,5.70
2018-05-12T16:04:23.229Z,7.50
2018-05-12T16:06:57.752Z,5.50
2018-05-12T16:09:32.418Z,5.13
2018-05-12T16:12:07.056Z,5.70
2018-05-12T16:14:41.707Z,5.80
2018-05-12T16:17:16.484Z,6.23
2018-05-12T16:19:51.400Z,5.50
2018-05-12T16:22:26.165Z,6.47
2018-05-12T16:25:00.749Z,7.10
2018-05-12T16:27:35.304Z,6.27
2018-05-12T16:30:11.450Z,7.23
2018-05-12T16:32:46.198Z,7.30
2018-05-12T16:35:20.871Z,7.10
2018-05-12T16:37:55.400Z,6.07
2018-05-12T16:40:30.060Z,6.90
2018-05-12T16:43:04.861Z,6.23
2018-05-12T16:45:40.337Z,5.97
2018-05-12T16:48:15.218Z,7.80
2018-05-12T16:50:50.190Z,6.27
2018-05-12T16:53:24.926Z,5.70
2018-05-12T16:55:59.562Z,5.90
2018-05-12T16:58:34.192Z,6.83
2018-05-12T17:01:08.916Z,5.90
2018-05-12T17:03:43.489Z,6.43
2018-05-12T17:06:19.715Z,6.00
2018-05-12T17:08:54.599Z,6.13
2018-05-12T17:11:29.208Z,5.80
2018-05-12T17:14:04.601Z,6.13
2018-05-12T17:16:39.272Z,6.23
2018-05-12T17:19:14.828Z,6.30
2018-05-12T17:21:49.792Z,5.97
2018-05-12T17:24:24.523Z,5.97
2018-05-12T17:27:00.070Z,5.70
2018-05-12T17:29:34.785Z,8.27
2018-05-12T17:32:09.384Z,6.67
2018-05-12T17:34:44.051Z,5.53
2018-05-12T17:37:18.740Z,6.30
2018-05-12T17:39:54.434Z,6.37
2018-05-12T17:42:29.120Z,6.60
2018-05-12T17:45:03.705Z,6.10
2018-05-12T17:47:38.393Z,10.17
2018-05-12T17:50:13.953Z,9.00
2018-05-12T17:52:48.520Z,7.30
2018-05-12T17:55:23.299Z,11.73
2018-05-12T17:57:57.890Z,7.67
2018-05-12T18:00:32.479Z,7.20
2018-05-12T18:03:07.160Z,9.17
2018-05-12T18:05:41.904Z,9.20
2018-05-12T18:08:16.708Z,5.97
2018-05-12T18:10:51.412Z,8.63
2018-05-12T18:13:26.382Z,7.23
2018-05-12T18:16:01.214Z,26.50
2018-05-12T18:18:36.041Z,10.10
2018-05-12T18:21:10.659Z,8.40
2018-05-12T18:23:45.254Z,7.47
2018-05-12T18:26:20.062Z,7.73
2018-05-12T18:28:54.741Z,9.43
2018-05-12T18:31:29.675Z,10.23
2018-05-12T18:34:04.249Z,7.30
2018-05-12T18:36:39.032Z,6.67
2018-05-12T18:39:13.581Z,8.43
2018-05-12T18:41:48.958Z,7.40
2018-05-12T18:44:23.758Z,8.03
2018-05-12T18:46:53.504Z,9.87
2018-05-12T18:49:22.693Z,8.30
2018-05-12T18:51:52.459Z,7.27
2018-05-12T18:54:22.366Z,10.30
2018-05-12T18:56:51.577Z,9.37
2018-05-12T18:59:21.577Z,11.10
2018-05-12T19:01:50.533Z,8.87
2018-05-12T19:04:19.815Z,10.00
2018-05-12T19:06:48.909Z,10.27
2018-05-12T19:09:18.394Z,9.90
2018-05-12T19:11:47.394Z,16.60
2018-05-12T19:14:16.555Z,11.27
2018-05-12T19:16:46.076Z,12.60
2018-05-12T19:19:15.344Z,14.73
2018-05-12T19:21:45.123Z,10.10
2018-05-12T19:24:15.084Z,9.47
2018-05-12T19:26:44.097Z,10.00
2018-05-12T19:29:12.748Z,9.97
2018-05-12T19:31:42.740Z,10.13
2018-05-12T19:34:11.961Z,9.73
2018-05-12T19:36:41.161Z,10.10
2018-05-12T19:39:10.264Z,9.40
2018-05-12T19:41:39.309Z,10.60
2018-05-12T19:44:08.764Z,10.13
2018-05-12T19:46:37.705Z,13.90
2018-05-12T19:49:06.876Z,9.77
2018-05-12T19:51:36.019Z,10.73
2018-05-12T19:54:04.845Z,9.30
2018-05-12T19:56:33.966Z,10.60
2018-05-12T19:59:03.012Z,10.20
2018-05-12T20:01:37.954Z,11.10
2018-05-12T20:04:13.611Z,10.87
2018-05-12T20:06:48.597Z,10.07
2018-05-12T20:09:23.589Z,10.67
2018-05-12T20:11:58.208Z,10.87
2018-05-12T20:14:33.021Z,10.57
2018-05-12T20:17:07.659Z,11.77
2018-05-12T20:19:42.474Z,9.93
2018-05-12T20:22:17.216Z,12.70
2018-05-12T20:24:51.845Z,10.70
2018-05-12T20:27:27.271Z,12.50
2018-05-12T20:29:56.805Z,11.07
2018-05-12T20:32:31.552Z,12.90
2018-05-12T20:35:06.180Z,14.97
2018-05-12T20:37:40.875Z,15.13
2018-05-12T20:40:16.573Z,12.47
2018-05-12T20:42:51.230Z,11.40
2018-05-12T20:45:26.150Z,13.03
2018-05-12T20:48:01.692Z,17.03
2018-05-12T20:50:36.550Z,12.13
2018-05-12T20:53:11.370Z,14.70
2018-05-12T20:55:46.052Z,12.00
2018-05-12T20:58:20.622Z,11.50
2018-05-12T21:00:57.071Z,12.03
2018-05-12T21:03:31.760Z,12.60
2018-05-12T21:06:01.334Z,11.73
2018-05-12T21:08:35.998Z,16.27
2018-05-12T21:11:11.354Z,14.53
2018-05-12T21:13:46.108Z,12.17
2018-05-12T21:16:25.814Z,14.30
2018-05-12T21:19:00.837Z,15.43
2018-05-12T21:21:35.465Z,17.60
2018-05-12T21:24:10.202Z,19.40
2018-05-12T21:26:44.956Z,14.00
2018-05-12T21:29:20.397Z,13.60
2018-05-12T21:31:55.349Z,13.33
2018-05-12T21:34:30.121Z,13.93
2018-05-12T21:37:05.899Z,12.87
2018-05-12T21:39:40.512Z,13.93
2018-05-12T21:42:21.179Z,13.43
2018-05-12T21:44:55.849Z,14.70
2018-05-12T21:47:30.507Z,15.00
2018-05-12T21:50:05.387Z,13.83
2018-05-12T21:52:40.052Z,13.20
2018-05-12T21:55:14.820Z,14.80
2018-05-12T21:57:49.427Z,16.20
2018-05-12T22:00:24.081Z,15.00
2018-05-12T22:02:58.683Z,14.63
2018-05-12T22:05:33.404Z,12.43
2018-05-12T22:08:08.056Z,12.63
2018-05-12T22:10:42.884Z,14.20
2018-05-12T22:13:17.703Z,13.03
2018-05-12T22:15:52.139Z,14.43
2018-05-12T22:18:27.018Z,14.53
2018-05-12T22:21:01.698Z,13.03
2018-05-12T22:23:37.342Z,16.10
2018-05-12T22:26:11.983Z,13.93
2018-05-12T22:28:46.702Z,12.53
2018-05-12T22:31:21.652Z,13.10
2018-05-12T22:33:56.772Z,13.27
2018-05-12T22:36:31.485Z,11.77
2018-05-12T22:39:05.462Z,12.33
2018-05-12T22:41:40.353Z,13.03
2018-05-12T22:44:15.160Z,17.80
2018-05-12T22:46:50.739Z,17.00
2018-05-12T22:49:25.464Z,13.70
2018-05-12T22:52:00.144Z,15.90
2018-05-12T22:54:34.749Z,13.23
2018-05-12T22:57:09.364Z,16.80
2018-05-12T22:59:44.612Z,14.90
2018-05-12T23:02:19.159Z,12.77
2018-05-12T23:04:53.766Z,13.20
2018-05-12T23:07:28.336Z,13.80
2018-05-12T23:10:02.913Z,13.00
2018-05-12T23:12:37.566Z,13.23
2018-05-12T23:15:12.195Z,12.63
2018-05-12T23:17:46.779Z,12.23
2018-05-12T23:20:21.387Z,13.43
2018-05-12T23:22:56.959Z,12.10
2018-05-12T23:25:31.601Z,13.10
2018-05-12T23:28:06.216Z,12.00
2018-05-12T23:30:40.877Z,12.50
2018-05-12T23:33:15.250Z,11.70
2018-05-12T23:35:50.675Z,11.40
2018-05-12T23:38:25.521Z,11.97
2018-05-12T23:41:00.084Z,12.93
2018-05-12T23:43:29.904Z,14.10
2018-05-12T23:46:04.724Z,14.43
2018-05-12T23:48:39.294Z,13.50
2018-05-12T23:51:14.039Z,13.07
2018-05-12T23:53:48.757Z,16.23
2018-05-12T23:56:23.390Z,13.23
2018-05-12T23:58:57.962Z,14.80
